sensor_id;sensor_type;location;lat;lon;timestamp;P1;durP1;ratioP1;P2;durP2;ratioP2
17177;SDS011;8704;52.006;4.374;2022-12-29T00:00:04;33.40;;;31.80;;
17177;SDS011;8704;52.006;4.374;2022-12-29T00:02:36;32.88;;;31.17;;
17177;SDS011;8704;52.006;4.374;2022-12-29T00:05:04;32.67;;;31.08;;
17177;SDS011;8704;52.006;4.374;2022-12-29T00:07:33;35.08;;;33.28;;
17177;SDS011;8704;52.006;4.374;2022-12-29T00:10:01;34.15;;;32.10;;
17177;SDS011;8704;52.006;4.374;2022-12-29T00:12:29;34.10;;;32.35;;
17177;SDS011;8704;52.006;4.374;2022-12-29T00:15:17;27.42;;;25.95;;
17177;SDS011;8704;52.006;4.374;2022-12-29T00:18:04;30.50;;;28.67;;
17177;SDS011;8704;52.006;4.374;2022-12-29T00:20:33;26.70;;;25.30;;
17177;SDS011;8704;52.006;4.374;2022-12-29T00:23:30;28.92;;;27.42;;
17177;SDS011;8704;52.006;4.374;2022-12-29T00:26:16;30.10;;;28.50;;
17177;SDS011;8704;52.006;4.374;2022-12-29T00:29:01;24.92;;;23.58;;
17177;SDS011;8704;52.006;4.374;2022-12-29T00:31:47;27.25;;;25.73;;
17177;SDS011;8704;52.006;4.374;2022-12-29T00:34:34;23.83;;;22.63;;
17177;SDS011;8704;52.006;4.374;2022-12-29T00:37:20;25.73;;;24.42;;
17177;SDS011;8704;52.006;4.374;2022-12-29T00:40:08;24.95;;;23.52;;
17177;SDS011;8704;52.006;4.374;2022-12-29T00:42:54;28.70;;;27.25;;
17177;SDS011;8704;52.006;4.374;2022-12-29T00:45:39;27.88;;;26.17;;
17177;SDS011;8704;52.006;4.374;2022-12-29T00:48:08;27.67;;;26.35;;
17177;SDS011;8704;52.006;4.374;2022-12-29T00:50:37;27.85;;;26.45;;
17177;SDS011;8704;52.006;4.374;2022-12-29T00:53:04;28.23;;;26.73;;
17177;SDS011;8704;52.006;4.374;2022-12-29T00:55:35;27.88;;;26.38;;
17177;SDS011;8704;52.006;4.374;2022-12-29T00:58:03;34.40;;;32.67;;
17177;SDS011;8704;52.006;4.374;2022-12-29T01:00:32;30.33;;;28.77;;
17177;SDS011;8704;52.006;4.374;2022-12-29T01:03:00;29.60;;;28.13;;
17177;SDS011;8704;52.006;4.374;2022-12-29T01:05:28;29.17;;;27.58;;
17177;SDS011;8704;52.006;4.374;2022-12-29T01:07:57;30.02;;;28.45;;
17177;SDS011;8704;52.006;4.374;2022-12-29T01:10:25;31.23;;;29.52;;
17177;SDS011;8704;52.006;4.374;2022-12-29T01:12:52;31.70;;;29.80;;
17177;SDS011;8704;52.006;4.374;2022-12-29T01:15:21;36.03;;;34.33;;
17177;SDS011;8704;52.006;4.374;2022-12-29T01:17:49;34.90;;;33.10;;
17177;SDS011;8704;52.006;4.374;2022-12-29T01:20:18;37.80;;;35.85;;
17177;SDS011;8704;52.006;4.374;2022-12-29T01:22:46;39.00;;;37.10;;
17177;SDS011;8704;52.006;4.374;2022-12-29T01:25:15;33.05;;;31.45;;
17177;SDS011;8704;52.006;4.374;2022-12-29T01:27:43;32.00;;;30.38;;
17177;SDS011;8704;52.006;4.374;2022-12-29T01:30:11;34.00;;;32.25;;
17177;SDS011;8704;52.006;4.374;2022-12-29T01:32:40;35.70;;;33.90;;
17177;SDS011;8704;52.006;4.374;2022-12-29T01:35:08;31.13;;;29.60;;
17177;SDS011;8704;52.006;4.374;2022-12-29T01:37:36;31.15;;;29.45;;
17177;SDS011;8704;52.006;4.374;2022-12-29T01:40:05;34.47;;;32.72;;
17177;SDS011;8704;52.006;4.374;2022-12-29T01:42:35;32.28;;;30.48;;
17177;SDS011;8704;52.006;4.374;2022-12-29T01:45:04;30.10;;;28.50;;
17177;SDS011;8704;52.006;4.374;2022-12-29T01:47:37;33.28;;;31.25;;
17177;SDS011;8704;52.006;4.374;2022-12-29T01:50:08;32.83;;;31.13;;
17177;SDS011;8704;52.006;4.374;2022-12-29T01:52:40;31.10;;;29.58;;
17177;SDS011;8704;52.006;4.374;2022-12-29T01:55:12;31.02;;;29.42;;
17177;SDS011;8704;52.006;4.374;2022-12-29T01:57:45;25.80;;;24.20;;
17177;SDS011;8704;52.006;4.374;2022-12-29T02:00:16;22.90;;;21.40;;
17177;SDS011;8704;52.006;4.374;2022-12-29T02:02:46;25.70;;;24.17;;
17177;SDS011;8704;52.006;4.374;2022-12-29T02:05:20;27.00;;;25.38;;
17177;SDS011;8704;52.006;4.374;2022-12-29T02:07:52;29.83;;;28.02;;
17177;SDS011;8704;52.006;4.374;2022-12-29T02:10:21;23.52;;;21.83;;
17177;SDS011;8704;52.006;4.374;2022-12-29T02:12:53;23.17;;;21.45;;
17177;SDS011;8704;52.006;4.374;2022-12-29T02:15:21;22.42;;;20.90;;
17177;SDS011;8704;52.006;4.374;2022-12-29T02:18:03;25.42;;;23.23;;
17177;SDS011;8704;52.006;4.374;2022-12-29T02:20:50;27.42;;;25.65;;
17177;SDS011;8704;52.006;4.374;2022-12-29T02:27:22;30.52;;;28.05;;
17177;SDS011;8704;52.006;4.374;2022-12-29T02:30:09;31.73;;;29.88;;
17177;SDS011;8704;52.006;4.374;2022-12-29T02:32:51;32.42;;;30.00;;
17177;SDS011;8704;52.006;4.374;2022-12-29T02:35:25;34.08;;;32.08;;
17177;SDS011;8704;52.006;4.374;2022-12-29T02:38:00;32.08;;;30.10;;
17177;SDS011;8704;52.006;4.374;2022-12-29T02:40:39;31.55;;;29.65;;
17177;SDS011;8704;52.006;4.374;2022-12-29T02:43:12;31.55;;;29.67;;
17177;SDS011;8704;52.006;4.374;2022-12-29T02:45:47;32.75;;;30.88;;
17177;SDS011;8704;52.006;4.374;2022-12-29T02:48:22;35.92;;;33.60;;
17177;SDS011;8704;52.006;4.374;2022-12-29T02:50:57;32.05;;;29.73;;
17177;SDS011;8704;52.006;4.374;2022-12-29T02:53:28;28.60;;;26.60;;
17177;SDS011;8704;52.006;4.374;2022-12-29T02:56:16;25.30;;;23.00;;
17177;SDS011;8704;52.006;4.374;2022-12-29T02:58:44;26.70;;;24.17;;
17177;SDS011;8704;52.006;4.374;2022-12-29T03:01:23;28.67;;;26.05;;
17177;SDS011;8704;52.006;4.374;2022-12-29T03:04:14;27.67;;;24.92;;
17177;SDS011;8704;52.006;4.374;2022-12-29T03:06:56;25.48;;;23.10;;
17177;SDS011;8704;52.006;4.374;2022-12-29T03:09:36;31.25;;;28.27;;
17177;SDS011;8704;52.006;4.374;2022-12-29T03:12:12;25.73;;;23.40;;
17177;SDS011;8704;52.006;4.374;2022-12-29T03:14:52;29.65;;;26.92;;
17177;SDS011;8704;52.006;4.374;2022-12-29T03:17:47;23.73;;;21.55;;
17177;SDS011;8704;52.006;4.374;2022-12-29T03:20:23;21.02;;;19.13;;
17177;SDS011;8704;52.006;4.374;2022-12-29T03:22:59;18.52;;;16.48;;
17177;SDS011;8704;52.006;4.374;2022-12-29T03:25:30;23.40;;;21.25;;
17177;SDS011;8704;52.006;4.374;2022-12-29T03:28:01;19.90;;;17.85;;
17177;SDS011;8704;52.006;4.374;2022-12-29T03:30:33;23.58;;;21.65;;
17177;SDS011;8704;52.006;4.374;2022-12-29T03:33:04;17.50;;;16.10;;
17177;SDS011;8704;52.006;4.374;2022-12-29T03:35:36;18.48;;;17.00;;
17177;SDS011;8704;52.006;4.374;2022-12-29T03:38:09;20.05;;;18.42;;
17177;SDS011;8704;52.006;4.374;2022-12-29T03:40:44;20.42;;;18.73;;
17177;SDS011;8704;52.006;4.374;2022-12-29T03:43:15;20.23;;;18.67;;
17177;SDS011;8704;52.006;4.374;2022-12-29T03:45:44;23.15;;;20.83;;
17177;SDS011;8704;52.006;4.374;2022-12-29T03:48:12;20.13;;;18.73;;
17177;SDS011;8704;52.006;4.374;2022-12-29T03:50:42;14.85;;;13.60;;
17177;SDS011;8704;52.006;4.374;2022-12-29T03:53:09;18.23;;;16.65;;
17177;SDS011;8704;52.006;4.374;2022-12-29T03:55:37;20.02;;;13.38;;
17177;SDS011;8704;52.006;4.374;2022-12-29T03:58:05;17.35;;;14.32;;
17177;SDS011;8704;52.006;4.374;2022-12-29T04:00:33;13.65;;;12.35;;
17177;SDS011;8704;52.006;4.374;2022-12-29T04:03:01;17.10;;;14.25;;
17177;SDS011;8704;52.006;4.374;2022-12-29T04:05:30;15.80;;;12.02;;
17177;SDS011;8704;52.006;4.374;2022-12-29T04:07:59;12.80;;;11.27;;
17177;SDS011;8704;52.006;4.374;2022-12-29T04:10:27;18.33;;;11.38;;
17177;SDS011;8704;52.006;4.374;2022-12-29T04:12:55;19.80;;;10.05;;
17177;SDS011;8704;52.006;4.374;2022-12-29T04:15:23;14.95;;;9.95;;
17177;SDS011;8704;52.006;4.374;2022-12-29T04:17:52;19.58;;;10.82;;
17177;SDS011;8704;52.006;4.374;2022-12-29T04:20:20;14.60;;;10.93;;
17177;SDS011;8704;52.006;4.374;2022-12-29T04:23:07;20.23;;;11.50;;
17177;SDS011;8704;52.006;4.374;2022-12-29T04:25:35;19.20;;;12.75;;
17177;SDS011;8704;52.006;4.374;2022-12-29T04:28:03;23.02;;;18.10;;
17177;SDS011;8704;52.006;4.374;2022-12-29T04:30:31;16.23;;;14.48;;
17177;SDS011;8704;52.006;4.374;2022-12-29T04:32:59;19.45;;;15.35;;
17177;SDS011;8704;52.006;4.374;2022-12-29T04:35:27;20.10;;;17.85;;
17177;SDS011;8704;52.006;4.374;2022-12-29T04:37:55;22.92;;;20.85;;
17177;SDS011;8704;52.006;4.374;2022-12-29T04:40:24;23.25;;;20.80;;
17177;SDS011;8704;52.006;4.374;2022-12-29T04:42:52;24.50;;;22.05;;
17177;SDS011;8704;52.006;4.374;2022-12-29T04:45:20;21.42;;;19.25;;
17177;SDS011;8704;52.006;4.374;2022-12-29T04:47:49;24.73;;;22.63;;
17177;SDS011;8704;52.006;4.374;2022-12-29T04:50:17;23.40;;;21.17;;
17177;SDS011;8704;52.006;4.374;2022-12-29T04:52:45;22.67;;;20.38;;
17177;SDS011;8704;52.006;4.374;2022-12-29T04:55:13;22.52;;;20.48;;
17177;SDS011;8704;52.006;4.374;2022-12-29T04:57:45;24.10;;;21.55;;
17177;SDS011;8704;52.006;4.374;2022-12-29T05:00:13;26.20;;;22.88;;
17177;SDS011;8704;52.006;4.374;2022-12-29T05:02:41;24.88;;;22.77;;
17177;SDS011;8704;52.006;4.374;2022-12-29T05:05:10;22.85;;;21.02;;
17177;SDS011;8704;52.006;4.374;2022-12-29T05:07:38;25.55;;;23.08;;
17177;SDS011;8704;52.006;4.374;2022-12-29T05:10:06;26.77;;;24.27;;
17177;SDS011;8704;52.006;4.374;2022-12-29T05:12:35;28.70;;;26.00;;
17177;SDS011;8704;52.006;4.374;2022-12-29T05:15:06;30.90;;;27.90;;
17177;SDS011;8704;52.006;4.374;2022-12-29T05:17:35;28.83;;;26.25;;
17177;SDS011;8704;52.006;4.374;2022-12-29T05:20:04;28.02;;;25.27;;
17177;SDS011;8704;52.006;4.374;2022-12-29T05:22:33;28.75;;;23.38;;
17177;SDS011;8704;52.006;4.374;2022-12-29T05:25:02;27.02;;;24.52;;
17177;SDS011;8704;52.006;4.374;2022-12-29T05:27:30;27.20;;;24.80;;
17177;SDS011;8704;52.006;4.374;2022-12-29T05:29:58;27.60;;;24.90;;
17177;SDS011;8704;52.006;4.374;2022-12-29T05:32:28;29.35;;;26.40;;
17177;SDS011;8704;52.006;4.374;2022-12-29T05:34:56;29.33;;;26.38;;
17177;SDS011;8704;52.006;4.374;2022-12-29T05:37:23;23.92;;;21.65;;
17177;SDS011;8704;52.006;4.374;2022-12-29T05:39:51;24.02;;;21.67;;
17177;SDS011;8704;52.006;4.374;2022-12-29T05:42:19;29.40;;;23.95;;
17177;SDS011;8704;52.006;4.374;2022-12-29T05:44:47;29.25;;;25.63;;
17177;SDS011;8704;52.006;4.374;2022-12-29T05:47:19;26.63;;;23.95;;
17177;SDS011;8704;52.006;4.374;2022-12-29T05:49:49;31.67;;;28.33;;
17177;SDS011;8704;52.006;4.374;2022-12-29T05:52:17;33.85;;;30.55;;
17177;SDS011;8704;52.006;4.374;2022-12-29T05:54:45;30.10;;;25.80;;
17177;SDS011;8704;52.006;4.374;2022-12-29T05:57:13;30.23;;;27.35;;
17177;SDS011;8704;52.006;4.374;2022-12-29T05:59:41;30.80;;;27.65;;
17177;SDS011;8704;52.006;4.374;2022-12-29T06:02:09;32.35;;;25.75;;
17177;SDS011;8704;52.006;4.374;2022-12-29T06:04:38;31.48;;;24.88;;
17177;SDS011;8704;52.006;4.374;2022-12-29T06:07:07;27.65;;;23.10;;
17177;SDS011;8704;52.006;4.374;2022-12-29T06:09:35;28.10;;;25.35;;
17177;SDS011;8704;52.006;4.374;2022-12-29T06:12:03;32.10;;;23.40;;
17177;SDS011;8704;52.006;4.374;2022-12-29T06:14:32;31.00;;;23.48;;
17177;SDS011;8704;52.006;4.374;2022-12-29T06:17:00;33.50;;;23.73;;
17177;SDS011;8704;52.006;4.374;2022-12-29T06:19:28;29.05;;;19.52;;
17177;SDS011;8704;52.006;4.374;2022-12-29T06:21:56;26.67;;;17.90;;
17177;SDS011;8704;52.006;4.374;2022-12-29T06:24:25;26.08;;;16.10;;
17177;SDS011;8704;52.006;4.374;2022-12-29T06:26:53;27.67;;;15.05;;
17177;SDS011;8704;52.006;4.374;2022-12-29T06:29:21;23.50;;;14.02;;
17177;SDS011;8704;52.006;4.374;2022-12-29T06:31:49;25.80;;;11.63;;
17177;SDS011;8704;52.006;4.374;2022-12-29T06:34:22;23.23;;;9.13;;
17177;SDS011;8704;52.006;4.374;2022-12-29T06:36:50;28.33;;;11.75;;
17177;SDS011;8704;52.006;4.374;2022-12-29T06:39:18;30.70;;;9.65;;
17177;SDS011;8704;52.006;4.374;2022-12-29T06:41:47;22.25;;;10.32;;
17177;SDS011;8704;52.006;4.374;2022-12-29T06:44:18;25.17;;;10.25;;
17177;SDS011;8704;52.006;4.374;2022-12-29T06:46:46;21.30;;;9.10;;
17177;SDS011;8704;52.006;4.374;2022-12-29T06:49:14;21.15;;;10.55;;
17177;SDS011;8704;52.006;4.374;2022-12-29T06:51:42;21.13;;;11.00;;
17177;SDS011;8704;52.006;4.374;2022-12-29T06:54:10;21.75;;;10.25;;
17177;SDS011;8704;52.006;4.374;2022-12-29T06:56:39;22.08;;;10.45;;
17177;SDS011;8704;52.006;4.374;2022-12-29T06:59:08;25.77;;;11.65;;
17177;SDS011;8704;52.006;4.374;2022-12-29T07:01:36;18.17;;;10.27;;
17177;SDS011;8704;52.006;4.374;2022-12-29T07:04:05;19.15;;;13.05;;
17177;SDS011;8704;52.006;4.374;2022-12-29T07:06:33;18.42;;;12.13;;
17177;SDS011;8704;52.006;4.374;2022-12-29T07:09:00;18.70;;;10.43;;
17177;SDS011;8704;52.006;4.374;2022-12-29T07:11:28;17.45;;;9.63;;
17177;SDS011;8704;52.006;4.374;2022-12-29T07:13:56;16.55;;;9.73;;
17177;SDS011;8704;52.006;4.374;2022-12-29T07:16:31;22.58;;;12.27;;
17177;SDS011;8704;52.006;4.374;2022-12-29T07:19:00;20.65;;;10.13;;
17177;SDS011;8704;52.006;4.374;2022-12-29T07:21:28;22.48;;;11.30;;
17177;SDS011;8704;52.006;4.374;2022-12-29T07:23:56;20.83;;;12.35;;
17177;SDS011;8704;52.006;4.374;2022-12-29T07:26:24;19.17;;;11.98;;
17177;SDS011;8704;52.006;4.374;2022-12-29T07:28:59;18.85;;;12.98;;
17177;SDS011;8704;52.006;4.374;2022-12-29T07:31:27;21.65;;;12.73;;
17177;SDS011;8704;52.006;4.374;2022-12-29T07:33:57;22.55;;;14.30;;
17177;SDS011;8704;52.006;4.374;2022-12-29T07:36:25;23.90;;;12.73;;
17177;SDS011;8704;52.006;4.374;2022-12-29T07:38:59;26.33;;;15.70;;
17177;SDS011;8704;52.006;4.374;2022-12-29T07:41:27;23.10;;;15.60;;
17177;SDS011;8704;52.006;4.374;2022-12-29T07:43:55;21.95;;;12.02;;
17177;SDS011;8704;52.006;4.374;2022-12-29T07:46:23;25.23;;;14.07;;
17177;SDS011;8704;52.006;4.374;2022-12-29T07:49:12;22.98;;;16.52;;
17177;SDS011;8704;52.006;4.374;2022-12-29T07:51:40;19.02;;;12.98;;
17177;SDS011;8704;52.006;4.374;2022-12-29T07:54:08;25.65;;;12.20;;
17177;SDS011;8704;52.006;4.374;2022-12-29T07:56:38;28.63;;;12.85;;
17177;SDS011;8704;52.006;4.374;2022-12-29T07:59:06;25.45;;;11.80;;
17177;SDS011;8704;52.006;4.374;2022-12-29T08:01:34;22.40;;;10.80;;
17177;SDS011;8704;52.006;4.374;2022-12-29T08:04:03;22.40;;;11.07;;
17177;SDS011;8704;52.006;4.374;2022-12-29T08:06:32;23.15;;;12.60;;
17177;SDS011;8704;52.006;4.374;2022-12-29T08:09:01;27.38;;;14.60;;
17177;SDS011;8704;52.006;4.374;2022-12-29T08:11:40;25.27;;;14.13;;
17177;SDS011;8704;52.006;4.374;2022-12-29T08:14:09;30.63;;;17.90;;
17177;SDS011;8704;52.006;4.374;2022-12-29T08:16:37;29.88;;;18.17;;
17177;SDS011;8704;52.006;4.374;2022-12-29T08:19:05;24.70;;;15.98;;
17177;SDS011;8704;52.006;4.374;2022-12-29T08:21:34;26.75;;;16.80;;
17177;SDS011;8704;52.006;4.374;2022-12-29T08:24:02;28.35;;;19.77;;
17177;SDS011;8704;52.006;4.374;2022-12-29T08:26:30;26.48;;;19.95;;
17177;SDS011;8704;52.006;4.374;2022-12-29T08:28:58;28.02;;;20.70;;
17177;SDS011;8704;52.006;4.374;2022-12-29T08:31:26;29.33;;;16.42;;
17177;SDS011;8704;52.006;4.374;2022-12-29T08:33:57;26.60;;;22.13;;
17177;SDS011;8704;52.006;4.374;2022-12-29T08:36:27;34.63;;;22.38;;
17177;SDS011;8704;52.006;4.374;2022-12-29T08:38:57;30.10;;;24.02;;
17177;SDS011;8704;52.006;4.374;2022-12-29T08:41:25;25.70;;;23.35;;
17177;SDS011;8704;52.006;4.374;2022-12-29T08:43:53;31.10;;;26.42;;
17177;SDS011;8704;52.006;4.374;2022-12-29T08:46:21;24.88;;;22.50;;
17177;SDS011;8704;52.006;4.374;2022-12-29T08:48:49;32.33;;;29.20;;
17177;SDS011;8704;52.006;4.374;2022-12-29T08:51:18;34.47;;;30.83;;
17177;SDS011;8704;52.006;4.374;2022-12-29T08:53:50;32.42;;;29.17;;
17177;SDS011;8704;52.006;4.374;2022-12-29T08:56:19;29.75;;;26.98;;
17177;SDS011;8704;52.006;4.374;2022-12-29T08:58:49;32.55;;;26.77;;
17177;SDS011;8704;52.006;4.374;2022-12-29T09:01:17;31.60;;;28.65;;
17177;SDS011;8704;52.006;4.374;2022-12-29T09:03:46;31.23;;;27.20;;
17177;SDS011;8704;52.006;4.374;2022-12-29T09:06:34;34.33;;;31.38;;
17177;SDS011;8704;52.006;4.374;2022-12-29T09:09:06;37.08;;;33.78;;
17177;SDS011;8704;52.006;4.374;2022-12-29T09:11:35;39.58;;;35.63;;
17177;SDS011;8704;52.006;4.374;2022-12-29T09:14:03;37.67;;;34.08;;
17177;SDS011;8704;52.006;4.374;2022-12-29T09:16:31;40.55;;;36.65;;
17177;SDS011;8704;52.006;4.374;2022-12-29T09:19:00;46.72;;;42.78;;
17177;SDS011;8704;52.006;4.374;2022-12-29T09:21:29;46.65;;;42.70;;
17177;SDS011;8704;52.006;4.374;2022-12-29T09:23:57;45.40;;;41.67;;
17177;SDS011;8704;52.006;4.374;2022-12-29T09:26:25;48.20;;;43.70;;
17177;SDS011;8704;52.006;4.374;2022-12-29T09:28:54;47.05;;;42.58;;
17177;SDS011;8704;52.006;4.374;2022-12-29T09:31:23;47.55;;;43.58;;
17177;SDS011;8704;52.006;4.374;2022-12-29T09:33:51;46.97;;;43.28;;
17177;SDS011;8704;52.006;4.374;2022-12-29T09:36:19;46.38;;;42.53;;
17177;SDS011;8704;52.006;4.374;2022-12-29T09:38:47;43.20;;;39.22;;
17177;SDS011;8704;52.006;4.374;2022-12-29T09:41:17;44.88;;;38.90;;
17177;SDS011;8704;52.006;4.374;2022-12-29T09:43:57;44.75;;;40.22;;
17177;SDS011;8704;52.006;4.374;2022-12-29T09:46:31;39.58;;;35.80;;
17177;SDS011;8704;52.006;4.374;2022-12-29T09:49:06;41.70;;;37.63;;
17177;SDS011;8704;52.006;4.374;2022-12-29T09:51:41;45.17;;;39.45;;
17177;SDS011;8704;52.006;4.374;2022-12-29T09:54:19;42.78;;;38.83;;
17177;SDS011;8704;52.006;4.374;2022-12-29T09:56:51;40.67;;;36.53;;
17177;SDS011;8704;52.006;4.374;2022-12-29T09:59:21;44.58;;;36.28;;
17177;SDS011;8704;52.006;4.374;2022-12-29T10:01:55;50.05;;;36.67;;
17177;SDS011;8704;52.006;4.374;2022-12-29T10:04:29;39.13;;;32.80;;
17177;SDS011;8704;52.006;4.374;2022-12-29T10:07:00;43.90;;;34.78;;
17177;SDS011;8704;52.006;4.374;2022-12-29T10:09:57;45.53;;;34.53;;
17177;SDS011;8704;52.006;4.374;2022-12-29T10:12:42;40.22;;;31.40;;
17177;SDS011;8704;52.006;4.374;2022-12-29T10:15:25;35.43;;;29.80;;
17177;SDS011;8704;52.006;4.374;2022-12-29T10:18:04;38.25;;;27.65;;
17177;SDS011;8704;52.006;4.374;2022-12-29T10:20:47;39.47;;;29.65;;
17177;SDS011;8704;52.006;4.374;2022-12-29T10:23:22;37.85;;;30.67;;
17177;SDS011;8704;52.006;4.374;2022-12-29T10:25:55;41.78;;;28.60;;
17177;SDS011;8704;52.006;4.374;2022-12-29T10:28:25;41.97;;;32.53;;
17177;SDS011;8704;52.006;4.374;2022-12-29T10:31:04;39.60;;;29.23;;
17177;SDS011;8704;52.006;4.374;2022-12-29T10:33:40;45.08;;;30.48;;
17177;SDS011;8704;52.006;4.374;2022-12-29T10:36:12;42.72;;;29.25;;
17177;SDS011;8704;52.006;4.374;2022-12-29T10:38:45;50.25;;;23.05;;
17177;SDS011;8704;52.006;4.374;2022-12-29T10:41:20;39.60;;;22.10;;
17177;SDS011;8704;52.006;4.374;2022-12-29T10:43:53;26.60;;;18.88;;
17177;SDS011;8704;52.006;4.374;2022-12-29T10:46:25;24.38;;;12.60;;
17177;SDS011;8704;52.006;4.374;2022-12-29T10:48:56;29.25;;;11.82;;
17177;SDS011;8704;52.006;4.374;2022-12-29T10:51:25;21.00;;;13.60;;
17177;SDS011;8704;52.006;4.374;2022-12-29T10:53:55;30.98;;;11.50;;
17177;SDS011;8704;52.006;4.374;2022-12-29T10:56:30;31.50;;;12.63;;
17177;SDS011;8704;52.006;4.374;2022-12-29T11:01:37;33.97;;;15.02;;
17177;SDS011;8704;52.006;4.374;2022-12-29T11:04:19;37.17;;;16.00;;
17177;SDS011;8704;52.006;4.374;2022-12-29T11:07:08;39.95;;;14.70;;
17177;SDS011;8704;52.006;4.374;2022-12-29T11:09:41;25.00;;;12.52;;
17177;SDS011;8704;52.006;4.374;2022-12-29T11:12:17;20.73;;;8.90;;
17177;SDS011;8704;52.006;4.374;2022-12-29T11:14:47;18.20;;;7.97;;
17177;SDS011;8704;52.006;4.374;2022-12-29T11:17:28;20.95;;;6.65;;
17177;SDS011;8704;52.006;4.374;2022-12-29T11:19:56;22.17;;;6.78;;
17177;SDS011;8704;52.006;4.374;2022-12-29T11:22:25;20.80;;;6.70;;
17177;SDS011;8704;52.006;4.374;2022-12-29T11:25:04;21.05;;;7.32;;
17177;SDS011;8704;52.006;4.374;2022-12-29T11:27:37;26.55;;;8.40;;
17177;SDS011;8704;52.006;4.374;2022-12-29T11:30:11;24.30;;;9.40;;
17177;SDS011;8704;52.006;4.374;2022-12-29T11:32:52;24.45;;;10.13;;
17177;SDS011;8704;52.006;4.374;2022-12-29T11:35:31;23.73;;;7.53;;
17177;SDS011;8704;52.006;4.374;2022-12-29T11:38:02;21.92;;;6.03;;
17177;SDS011;8704;52.006;4.374;2022-12-29T11:40:31;17.70;;;5.00;;
17177;SDS011;8704;52.006;4.374;2022-12-29T11:43:05;18.13;;;5.10;;
17177;SDS011;8704;52.006;4.374;2022-12-29T11:45:33;16.60;;;4.38;;
17177;SDS011;8704;52.006;4.374;2022-12-29T11:48:07;15.40;;;3.72;;
17177;SDS011;8704;52.006;4.374;2022-12-29T11:50:43;15.93;;;4.30;;
17177;SDS011;8704;52.006;4.374;2022-12-29T11:53:20;15.38;;;4.75;;
17177;SDS011;8704;52.006;4.374;2022-12-29T11:55:51;16.33;;;5.45;;
17177;SDS011;8704;52.006;4.374;2022-12-29T11:58:27;19.90;;;6.68;;
17177;SDS011;8704;52.006;4.374;2022-12-29T12:00:59;22.77;;;7.93;;
17177;SDS011;8704;52.006;4.374;2022-12-29T12:03:31;23.30;;;9.82;;
17177;SDS011;8704;52.006;4.374;2022-12-29T12:06:01;23.15;;;10.10;;
17177;SDS011;8704;52.006;4.374;2022-12-29T12:08:31;23.48;;;11.45;;
17177;SDS011;8704;52.006;4.374;2022-12-29T12:11:04;26.42;;;11.38;;
17177;SDS011;8704;52.006;4.374;2022-12-29T12:13:39;23.27;;;9.68;;
17177;SDS011;8704;52.006;4.374;2022-12-29T12:16:12;24.00;;;10.05;;
17177;SDS011;8704;52.006;4.374;2022-12-29T12:18:46;19.77;;;8.70;;
17177;SDS011;8704;52.006;4.374;2022-12-29T12:21:20;21.55;;;8.80;;
17177;SDS011;8704;52.006;4.374;2022-12-29T12:24:01;22.75;;;7.88;;
17177;SDS011;8704;52.006;4.374;2022-12-29T12:26:47;18.42;;;6.47;;
17177;SDS011;8704;52.006;4.374;2022-12-29T12:29:24;15.45;;;5.60;;
17177;SDS011;8704;52.006;4.374;2022-12-29T12:32:01;17.35;;;5.28;;
17177;SDS011;8704;52.006;4.374;2022-12-29T12:34:37;17.65;;;5.93;;
17177;SDS011;8704;52.006;4.374;2022-12-29T12:37:14;17.15;;;5.38;;
17177;SDS011;8704;52.006;4.374;2022-12-29T12:40:02;17.20;;;5.75;;
17177;SDS011;8704;52.006;4.374;2022-12-29T12:42:54;15.32;;;6.00;;
17177;SDS011;8704;52.006;4.374;2022-12-29T12:45:36;15.80;;;5.20;;
17177;SDS011;8704;52.006;4.374;2022-12-29T12:48:17;17.95;;;6.22;;
17177;SDS011;8704;52.006;4.374;2022-12-29T12:50:59;20.42;;;6.30;;
17177;SDS011;8704;52.006;4.374;2022-12-29T12:53:41;22.40;;;7.20;;
17177;SDS011;8704;52.006;4.374;2022-12-29T12:56:23;24.20;;;7.55;;
17177;SDS011;8704;52.006;4.374;2022-12-29T12:59:13;23.10;;;8.05;;
17177;SDS011;8704;52.006;4.374;2022-12-29T13:02:03;20.03;;;7.90;;
17177;SDS011;8704;52.006;4.374;2022-12-29T13:04:47;19.45;;;7.40;;
17177;SDS011;8704;52.006;4.374;2022-12-29T13:07:31;27.15;;;7.13;;
17177;SDS011;8704;52.006;4.374;2022-12-29T13:10:12;19.50;;;7.22;;
17177;SDS011;8704;52.006;4.374;2022-12-29T13:12:52;23.10;;;7.47;;
17177;SDS011;8704;52.006;4.374;2022-12-29T13:15:34;24.17;;;8.65;;
17177;SDS011;8704;52.006;4.374;2022-12-29T13:18:13;27.97;;;8.17;;
17177;SDS011;8704;52.006;4.374;2022-12-29T13:20:47;21.98;;;6.75;;
17177;SDS011;8704;52.006;4.374;2022-12-29T13:23:23;22.60;;;8.38;;
17177;SDS011;8704;52.006;4.374;2022-12-29T13:25:59;32.08;;;8.63;;
17177;SDS011;8704;52.006;4.374;2022-12-29T13:28:34;23.38;;;6.47;;
17177;SDS011;8704;52.006;4.374;2022-12-29T13:31:10;20.33;;;5.35;;
17177;SDS011;8704;52.006;4.374;2022-12-29T13:33:47;18.45;;;6.47;;
17177;SDS011;8704;52.006;4.374;2022-12-29T13:36:24;14.88;;;4.88;;
17177;SDS011;8704;52.006;4.374;2022-12-29T13:41:29;15.48;;;4.70;;
17177;SDS011;8704;52.006;4.374;2022-12-29T13:44:01;13.55;;;5.13;;
17177;SDS011;8704;52.006;4.374;2022-12-29T13:46:33;17.67;;;6.53;;
17177;SDS011;8704;52.006;4.374;2022-12-29T13:49:07;16.15;;;9.35;;
17177;SDS011;8704;52.006;4.374;2022-12-29T13:51:41;18.30;;;10.98;;
17177;SDS011;8704;52.006;4.374;2022-12-29T13:54:21;14.23;;;9.13;;
17177;SDS011;8704;52.006;4.374;2022-12-29T13:56:55;17.25;;;9.68;;
17177;SDS011;8704;52.006;4.374;2022-12-29T13:59:33;16.90;;;11.45;;
17177;SDS011;8704;52.006;4.374;2022-12-29T14:02:11;23.75;;;10.60;;
17177;SDS011;8704;52.006;4.374;2022-12-29T14:04:56;20.58;;;14.68;;
17177;SDS011;8704;52.006;4.374;2022-12-29T14:07:26;18.60;;;9.55;;
17177;SDS011;8704;52.006;4.374;2022-12-29T14:09:57;16.73;;;9.32;;
17177;SDS011;8704;52.006;4.374;2022-12-29T14:12:30;18.17;;;12.18;;
17177;SDS011;8704;52.006;4.374;2022-12-29T14:15:04;17.52;;;12.68;;
17177;SDS011;8704;52.006;4.374;2022-12-29T14:17:33;24.25;;;13.57;;
17177;SDS011;8704;52.006;4.374;2022-12-29T14:20:02;16.13;;;13.85;;
17177;SDS011;8704;52.006;4.374;2022-12-29T14:22:33;21.73;;;12.20;;
17177;SDS011;8704;52.006;4.374;2022-12-29T14:25:03;24.67;;;13.00;;
17177;SDS011;8704;52.006;4.374;2022-12-29T14:27:50;23.60;;;16.10;;
17177;SDS011;8704;52.006;4.374;2022-12-29T14:33:21;24.48;;;16.55;;
17177;SDS011;8704;52.006;4.374;2022-12-29T14:35:52;18.70;;;16.40;;
17177;SDS011;8704;52.006;4.374;2022-12-29T14:38:26;17.60;;;12.70;;
17177;SDS011;8704;52.006;4.374;2022-12-29T14:43:53;20.08;;;12.75;;
17177;SDS011;8704;52.006;4.374;2022-12-29T14:46:24;20.58;;;13.85;;
17177;SDS011;8704;52.006;4.374;2022-12-29T14:48:54;22.27;;;17.48;;
17177;SDS011;8704;52.006;4.374;2022-12-29T14:51:31;21.20;;;16.20;;
17177;SDS011;8704;52.006;4.374;2022-12-29T14:57:19;18.25;;;14.13;;
17177;SDS011;8704;52.006;4.374;2022-12-29T15:00:15;18.92;;;14.88;;
17177;SDS011;8704;52.006;4.374;2022-12-29T15:02:46;21.83;;;15.05;;
17177;SDS011;8704;52.006;4.374;2022-12-29T15:05:24;21.73;;;12.63;;
17177;SDS011;8704;52.006;4.374;2022-12-29T15:07:57;18.77;;;14.13;;
17177;SDS011;8704;52.006;4.374;2022-12-29T15:10:27;19.30;;;13.48;;
17177;SDS011;8704;52.006;4.374;2022-12-29T15:13:05;16.48;;;13.25;;
17177;SDS011;8704;52.006;4.374;2022-12-29T15:15:41;18.67;;;12.80;;
17177;SDS011;8704;52.006;4.374;2022-12-29T15:18:13;18.05;;;13.30;;
17177;SDS011;8704;52.006;4.374;2022-12-29T15:20:50;22.50;;;12.70;;
17177;SDS011;8704;52.006;4.374;2022-12-29T15:23:21;19.25;;;12.07;;
17177;SDS011;8704;52.006;4.374;2022-12-29T15:25:50;19.90;;;13.90;;